createdAt,value
2018-07-11T00:01:18.698Z,99355.59
2018-07-11T00:03:49.765Z,99356.56
2018-07-11T00:06:18.941Z,99362.09
2018-07-11T00:08:46.928Z,99360.26
2018-07-11T00:11:15.166Z,99358.95
2018-07-11T00:13:44.201Z,99361.95
2018-07-11T00:16:12.968Z,99363.23
2018-07-11T00:18:40.868Z,99368.80
2018-07-11T00:21:08.874Z,99375.36
2018-07-11T00:23:37.062Z,99371.80
2018-07-11T00:26:06.285Z,99372.09
2018-07-11T00:28:34.292Z,99375.55
2018-07-11T00:31:02.672Z,99367.13
2018-07-11T00:33:31.041Z,99363.31
2018-07-11T00:35:59.029Z,99357.62
2018-07-11T00:38:27.054Z,99351.03
2018-07-11T00:40:55.061Z,99352.29
2018-07-11T00:43:23.098Z,99355.77
2018-07-11T00:45:51.633Z,99359.94
2018-07-11T00:48:19.629Z,99352.77
2018-07-11T00:50:47.637Z,99345.53
2018-07-11T00:53:15.649Z,99346.29
2018-07-11T00:55:45.237Z,99347.62
2018-07-11T00:58:24.729Z,99339.58
2018-07-11T01:01:05.121Z,99333.92
2018-07-11T01:03:35.835Z,99332.81
2018-07-11T01:06:03.965Z,99335.97
2018-07-11T01:08:34.539Z,99340.41
2018-07-11T01:11:07.059Z,99337.91
2018-07-11T01:13:35.089Z,99330.69
2018-07-11T01:16:03.050Z,99334.80
2018-07-11T01:18:31.103Z,99338.20
2018-07-11T01:20:58.942Z,99335.87
2018-07-11T01:23:26.845Z,99336.66
2018-07-11T01:25:54.730Z,99336.80
2018-07-11T01:28:22.578Z,99337.56
2018-07-11T01:30:50.520Z,99340.33
2018-07-11T01:33:18.349Z,99336.77
2018-07-11T01:35:46.319Z,99338.85
2018-07-11T01:38:14.182Z,99333.13
2018-07-11T01:40:42.016Z,99338.87
2018-07-11T01:43:09.971Z,99340.09
2018-07-11T01:45:37.854Z,99341.73
2018-07-11T01:48:05.933Z,99339.33
2018-07-11T01:50:33.901Z,99341.92
2018-07-11T01:53:01.767Z,99344.50
2018-07-11T01:55:29.759Z,99340.43
2018-07-11T01:57:59.981Z,99343.23
2018-07-11T02:00:29.170Z,99343.46
2018-07-11T02:02:57.234Z,99346.11
2018-07-11T02:05:26.718Z,99348.16
2018-07-11T02:07:55.103Z,99353.00
2018-07-11T02:10:23.421Z,99355.56
2018-07-11T02:12:51.715Z,99364.20
2018-07-11T02:15:19.766Z,99351.58
2018-07-11T02:17:47.778Z,99354.20
2018-07-11T02:20:17.145Z,99352.87
2018-07-11T02:22:46.541Z,99348.66
2018-07-11T02:25:15.442Z,99345.82
2018-07-11T02:27:43.472Z,99349.10
2018-07-11T02:30:11.403Z,99350.66
2018-07-11T02:32:39.761Z,99351.91
2018-07-11T02:35:07.706Z,99351.45
2018-07-11T02:37:35.713Z,99346.16
2018-07-11T02:40:03.631Z,99347.61
2018-07-11T02:42:31.551Z,99349.92
2018-07-11T02:44:59.538Z,99346.55
2018-07-11T02:47:33.095Z,99347.28
2018-07-11T02:50:01.191Z,99346.53
2018-07-11T02:52:29.085Z,99341.10
2018-07-11T02:54:56.999Z,99341.44
2018-07-11T02:57:25.117Z,99345.05
2018-07-11T02:59:53.080Z,99349.16
2018-07-11T03:02:21.094Z,99355.23
2018-07-11T03:04:49.048Z,99357.28
2018-07-11T03:07:16.973Z,99357.42
2018-07-11T03:09:44.899Z,99355.76
2018-07-11T03:12:12.759Z,99360.38
2018-07-11T03:14:43.370Z,99357.91
2018-07-11T03:17:11.258Z,99360.62
2018-07-11T03:19:39.178Z,99356.48
2018-07-11T03:22:07.074Z,99360.59
2018-07-11T03:24:35.022Z,99357.85
2018-07-11T03:27:03.023Z,99360.33
2018-07-11T03:29:30.921Z,99360.87
2018-07-11T03:31:58.870Z,99355.09
2018-07-11T03:34:26.837Z,99355.61
2018-07-11T03:36:54.809Z,99361.16
2018-07-11T03:39:22.797Z,99356.83
2018-07-11T03:41:50.761Z,99356.45
2018-07-11T03:44:18.722Z,99360.53
2018-07-11T03:46:46.647Z,99362.78
2018-07-11T03:49:14.615Z,99361.50
2018-07-11T03:51:42.514Z,99358.18
2018-07-11T03:54:10.367Z,99373.22
2018-07-11T03:56:38.250Z,99371.84
2018-07-11T03:59:06.174Z,99372.19
2018-07-11T04:01:34.093Z,99379.72
2018-07-11T04:04:01.987Z,99380.02
2018-07-11T04:06:29.905Z,99380.30
2018-07-11T04:08:57.762Z,99377.80
2018-07-11T04:11:25.614Z,99381.59
2018-07-11T04:13:53.483Z,99379.73
2018-07-11T04:16:21.367Z,99373.87
2018-07-11T04:18:49.224Z,99370.95
2018-07-11T04:21:17.070Z,99347.27
2018-07-11T04:23:44.988Z,99352.92
2018-07-11T04:26:13.050Z,99338.33
2018-07-11T04:28:41.398Z,99345.09
2018-07-11T04:31:09.503Z,99340.26
2018-07-11T04:33:37.494Z,99341.50
2018-07-11T04:36:05.390Z,99340.23
2018-07-11T04:38:33.365Z,99338.14
2018-07-11T04:41:01.234Z,99333.30
2018-07-11T04:43:29.190Z,99333.34
2018-07-11T04:45:57.169Z,99328.72
2018-07-11T04:48:25.167Z,99338.19
2018-07-11T04:50:53.185Z,99339.66
2018-07-11T04:53:23.789Z,99338.61
2018-07-11T04:55:55.399Z,99337.63
2018-07-11T04:58:23.237Z,99338.19
2018-07-11T05:00:51.066Z,99337.72
2018-07-11T05:03:18.936Z,99339.90
2018-07-11T05:05:46.831Z,99350.77
2018-07-11T05:08:14.647Z,99356.90
2018-07-11T05:10:42.488Z,99354.31
2018-07-11T05:13:10.339Z,99354.34
2018-07-11T05:15:38.238Z,99360.02
2018-07-11T05:18:06.238Z,99355.08
2018-07-11T05:20:34.367Z,99350.73
2018-07-11T05:23:02.546Z,99346.25
2018-07-11T05:25:30.397Z,99348.87
2018-07-11T05:27:58.606Z,99350.25
2018-07-11T05:30:26.525Z,99348.38
2018-07-11T05:32:54.369Z,99350.60
2018-07-11T05:35:22.264Z,99347.97
2018-07-11T05:37:50.149Z,99344.39
2018-07-11T05:40:18.083Z,99347.16
2018-07-11T05:42:45.999Z,99348.16
2018-07-11T05:45:13.859Z,99354.47
2018-07-11T05:47:41.733Z,99363.64
2018-07-11T05:50:09.689Z,99366.25
2018-07-11T05:52:37.534Z,99358.37
2018-07-11T05:55:05.364Z,99365.91
2018-07-11T05:57:33.254Z,99366.54
2018-07-11T06:00:01.098Z,99367.42
2018-07-11T06:02:28.989Z,99380.70
2018-07-11T06:04:56.870Z,99389.24
2018-07-11T06:07:24.753Z,99398.72
2018-07-11T06:09:52.615Z,99403.05
2018-07-11T06:12:20.484Z,99397.80
2018-07-11T06:14:48.362Z,99402.75
2018-07-11T06:17:16.205Z,99401.17
2018-07-11T06:19:44.112Z,99402.84
2018-07-11T06:22:11.990Z,99402.35
2018-07-11T06:24:39.890Z,99402.92
2018-07-11T06:27:07.759Z,99410.08
2018-07-11T06:29:35.641Z,99400.83
2018-07-11T06:32:03.585Z,99398.78
2018-07-11T06:34:31.448Z,99406.98
2018-07-11T06:36:59.651Z,99394.48
2018-07-11T06:39:28.001Z,99398.46
2018-07-11T06:41:56.202Z,99378.26
2018-07-11T06:44:24.066Z,99375.63
2018-07-11T06:46:51.971Z,99383.20
2018-07-11T06:49:19.838Z,99374.26
2018-07-11T06:51:47.729Z,99371.65
2018-07-11T06:54:15.955Z,99366.20
2018-07-11T06:56:43.797Z,99370.78
2018-07-11T06:59:11.680Z,99369.05
2018-07-11T07:01:39.619Z,99367.52
2018-07-11T07:04:07.575Z,99353.95
2018-07-11T07:06:35.450Z,99357.95
2018-07-11T07:09:04.579Z,99362.17
2018-07-11T07:11:32.867Z,99366.69
2018-07-11T07:14:00.729Z,99378.55
2018-07-11T07:16:28.619Z,99381.83
2018-07-11T07:18:56.509Z,99383.68
2018-07-11T07:21:24.364Z,99391.52
2018-07-11T07:23:52.242Z,99385.42
2018-07-11T07:26:20.093Z,99382.42
2018-07-11T07:28:48.062Z,99379.76
2018-07-11T07:31:15.890Z,99366.53
2018-07-11T07:33:43.732Z,99382.18
2018-07-11T07:36:11.589Z,99380.44
2018-07-11T07:38:42.146Z,99378.25
2018-07-11T07:41:10.539Z,99386.02
2018-07-11T07:43:39.172Z,99377.73
2018-07-11T07:46:07.396Z,99378.95
2018-07-11T07:48:35.445Z,99370.70
2018-07-11T07:51:03.515Z,99367.92
2018-07-11T07:53:31.622Z,99363.98
2018-07-11T07:55:59.643Z,99365.53
2018-07-11T07:58:27.726Z,99375.58
2018-07-11T08:00:55.643Z,99368.75
2018-07-11T08:03:23.670Z,99372.73
2018-07-11T08:05:51.526Z,99377.21
2018-07-11T08:08:19.455Z,99372.31
2018-07-11T08:10:47.325Z,99368.86
2018-07-11T08:13:15.254Z,99371.62
2018-07-11T08:15:43.119Z,99355.82
2018-07-11T08:18:10.996Z,99358.59
2018-07-11T08:20:38.908Z,99349.94
2018-07-11T08:23:19.035Z,99344.75
2018-07-11T08:25:59.165Z,99347.36
2018-07-11T08:30:40.050Z,99351.28
2018-07-11T08:33:24.957Z,99339.81
2018-07-11T08:36:04.018Z,99332.33
2018-07-11T08:40:54.002Z,99324.78
2018-07-11T08:45:33.699Z,99344.65
2018-07-11T08:48:30.846Z,99328.65
2018-07-11T08:51:29.513Z,99334.36
2018-07-11T08:54:11.294Z,99342.96
2018-07-11T08:56:50.218Z,99336.03
2018-07-11T08:59:32.850Z,99332.55
2018-07-11T09:02:11.655Z,99330.70
2018-07-11T09:06:58.583Z,99329.32
2018-07-11T09:11:42.342Z,99327.56
2018-07-11T09:14:25.819Z,99321.14
2018-07-11T09:17:44.297Z,99317.82
2018-07-11T09:21:02.317Z,99315.45
2018-07-11T09:24:11.137Z,99305.44
2018-07-11T09:26:38.914Z,99323.58
2018-07-11T09:29:07.071Z,99327.17
2018-07-11T09:31:35.043Z,99325.11
2018-07-11T09:34:02.961Z,99318.51
2018-07-11T09:36:30.869Z,99319.42
2018-07-11T09:38:58.765Z,99321.48
2018-07-11T09:41:26.670Z,99322.35
2018-07-11T09:43:54.700Z,99320.92
2018-07-11T09:46:22.741Z,99324.92
2018-07-11T09:48:51.069Z,99326.58
2018-07-11T09:51:18.998Z,99331.20
2018-07-11T09:53:46.861Z,99330.13
2018-07-11T09:56:15.185Z,99324.89
2018-07-11T09:58:43.219Z,99326.80
2018-07-11T10:01:16.702Z,99320.00
2018-07-11T10:03:44.754Z,99318.30
2018-07-11T10:06:12.772Z,99320.99
2018-07-11T10:08:40.673Z,99334.15
2018-07-11T10:11:08.495Z,99325.55
2018-07-11T10:13:36.665Z,99325.77
2018-07-11T10:16:04.632Z,99320.42
2018-07-11T10:18:32.591Z,99317.81
2018-07-11T10:21:00.545Z,99313.94
2018-07-11T10:23:28.587Z,99320.94
2018-07-11T10:25:57.254Z,99323.16
2018-07-11T10:28:25.222Z,99331.63
2018-07-11T10:30:53.121Z,99321.75
2018-07-11T10:33:20.947Z,99318.48
2018-07-11T10:35:48.903Z,99319.30
2018-07-11T10:38:16.774Z,99318.09
2018-07-11T10:40:44.629Z,99322.09
2018-07-11T10:43:12.612Z,99319.12
2018-07-11T10:45:40.596Z,99313.88
2018-07-11T10:48:08.451Z,99313.11
2018-07-11T10:50:36.475Z,99313.81
2018-07-11T10:53:04.378Z,99311.86
2018-07-11T10:55:32.262Z,99314.00
2018-07-11T10:58:00.197Z,99308.73
2018-07-11T11:00:36.660Z,99297.52
2018-07-11T11:02:57.759Z,99304.27
2018-07-11T11:05:25.655Z,99313.36
2018-07-11T11:07:53.625Z,99310.62
2018-07-11T11:10:21.574Z,99312.42
2018-07-11T11:12:49.509Z,99316.10
2018-07-11T11:15:17.507Z,99309.75
2018-07-11T11:17:45.370Z,99318.92
2018-07-11T11:20:13.263Z,99307.73
2018-07-11T11:22:41.129Z,99305.37
2018-07-11T11:25:09.620Z,99299.91
2018-07-11T11:27:37.520Z,99310.67
2018-07-11T11:30:05.433Z,99298.90
2018-07-11T11:32:33.353Z,99295.97
2018-07-11T11:35:01.435Z,99300.63
2018-07-11T11:37:29.510Z,99301.34
2018-07-11T11:39:57.337Z,99294.54
2018-07-11T11:42:25.639Z,99294.05
2018-07-11T11:44:54.173Z,99291.31
2018-07-11T11:47:25.034Z,99300.32
2018-07-11T11:49:53.526Z,99293.36
2018-07-11T11:52:21.507Z,99296.56
2018-07-11T11:54:49.435Z,99293.75
2018-07-11T11:57:17.294Z,99286.17
2018-07-11T11:59:45.183Z,99282.36
2018-07-11T12:02:13.055Z,99290.78
2018-07-11T12:04:40.978Z,99282.73
2018-07-11T12:07:08.850Z,99283.69
2018-07-11T12:09:36.854Z,99294.88
2018-07-11T12:12:04.733Z,99287.44
2018-07-11T12:14:33.845Z,99283.03
2018-07-11T12:17:01.746Z,99283.31
2018-07-11T12:19:29.754Z,99276.96
2018-07-11T12:21:57.697Z,99274.43
2018-07-11T12:24:25.734Z,99279.52
2018-07-11T12:26:53.655Z,99271.59
2018-07-11T12:29:21.581Z,99273.35
2018-07-11T12:31:49.470Z,99270.34
2018-07-11T12:34:17.402Z,99276.67
2018-07-11T12:36:45.391Z,99265.56
2018-07-11T12:39:13.463Z,99275.08
2018-07-11T12:41:41.555Z,99272.48
2018-07-11T12:44:09.558Z,99263.47
2018-07-11T12:46:37.590Z,99267.64
2018-07-11T12:49:06.336Z,99259.19
2018-07-11T12:51:35.223Z,99261.44
2018-07-11T12:54:04.011Z,99263.95
2018-07-11T12:56:31.980Z,99261.50
2018-07-11T12:58:59.940Z,99260.45
2018-07-11T13:01:28.231Z,99257.30
2018-07-11T13:03:57.739Z,99256.94
2018-07-11T13:06:27.450Z,99262.09
2018-07-11T13:08:55.539Z,99266.65
2018-07-11T13:11:23.491Z,99265.59
2018-07-11T13:13:51.961Z,99259.75
2018-07-11T13:16:19.917Z,99264.07
2018-07-11T13:18:48.158Z,99265.73
2018-07-11T13:21:16.031Z,99259.59
2018-07-11T13:23:43.933Z,99246.52
2018-07-11T13:26:11.901Z,99250.60
2018-07-11T13:28:39.882Z,99260.41
2018-07-11T13:31:08.191Z,99257.86
2018-07-11T13:33:36.465Z,99248.13
2018-07-11T13:36:04.362Z,99246.73
2018-07-11T13:38:32.403Z,99238.27
2018-07-11T13:41:00.314Z,99247.80
2018-07-11T13:43:28.247Z,99250.02
2018-07-11T13:45:56.302Z,99246.87
2018-07-11T13:48:24.213Z,99247.25
2018-07-11T13:50:52.057Z,99256.17
2018-07-11T13:53:20.021Z,99253.70
2018-07-11T13:55:48.044Z,99245.52
2018-07-11T13:58:16.051Z,99242.20
2018-07-11T14:00:44.004Z,99243.87
2018-07-11T14:03:11.894Z,99235.00
2018-07-11T14:05:39.834Z,99249.38
2018-07-11T14:08:08.295Z,99240.58
2018-07-11T14:10:36.176Z,99242.32
2018-07-11T14:13:04.158Z,99255.30
2018-07-11T14:15:32.102Z,99251.76
2018-07-11T14:18:00.113Z,99248.20
2018-07-11T14:20:28.132Z,99249.64
2018-07-11T14:23:03.417Z,99251.67
2018-07-11T14:25:32.764Z,99251.38
2018-07-11T14:28:00.804Z,99248.06
2018-07-11T14:30:29.173Z,99246.20
2018-07-11T14:33:02.626Z,99242.01
2018-07-11T14:35:30.548Z,99234.73
2018-07-11T14:37:58.838Z,99235.04
2018-07-11T14:40:26.741Z,99227.30
2018-07-11T14:42:54.951Z,99229.13
2018-07-11T14:45:22.826Z,99236.06
2018-07-11T14:47:56.590Z,99231.63
2018-07-11T14:50:24.870Z,99237.08
2018-07-11T14:52:53.138Z,99236.05
2018-07-11T14:55:21.169Z,99233.87
2018-07-11T14:57:49.717Z,99234.46
2018-07-11T15:00:17.554Z,99232.66
2018-07-11T15:02:46.282Z,99222.02
2018-07-11T15:05:14.182Z,99226.48
2018-07-11T15:07:42.205Z,99219.13
2018-07-11T15:10:10.093Z,99225.23
2018-07-11T15:12:38.490Z,99230.01
2018-07-11T15:15:06.358Z,99230.38
2018-07-11T15:17:34.402Z,99236.72
2018-07-11T15:20:02.361Z,99233.42
2018-07-11T15:22:30.201Z,99237.77
2018-07-11T15:24:58.709Z,99235.36
2018-07-11T15:27:26.642Z,99234.47
2018-07-11T15:29:56.174Z,99238.94
2018-07-11T15:32:24.190Z,99235.61
2018-07-11T15:34:52.649Z,99243.27
2018-07-11T15:37:21.008Z,99240.16
2018-07-11T15:39:49.286Z,99232.91
2018-07-11T15:42:17.343Z,99239.66
2018-07-11T15:44:45.399Z,99238.84
2018-07-11T15:47:13.702Z,99237.23
2018-07-11T15:49:41.642Z,99234.73
2018-07-11T15:52:10.119Z,99237.19
2018-07-11T15:54:38.537Z,99237.70
2018-07-11T15:57:06.694Z,99240.89
2018-07-11T15:59:40.374Z,99239.06
2018-07-11T16:02:08.278Z,99234.28
2018-07-11T16:04:39.693Z,99235.22
2018-07-11T16:07:08.698Z,99238.41
2018-07-11T16:10:09.326Z,99241.53
2018-07-11T16:12:37.266Z,99244.48
2018-07-11T16:15:05.263Z,99243.84
2018-07-11T16:17:33.140Z,99237.16
2018-07-11T16:20:01.091Z,99246.58
2018-07-11T16:22:29.023Z,99240.88
2018-07-11T16:24:57.077Z,99241.95
2018-07-11T16:27:25.001Z,99241.75
2018-07-11T16:29:52.910Z,99243.28
2018-07-11T16:32:20.805Z,99247.28
2018-07-11T16:34:48.711Z,99242.92
2018-07-11T16:37:16.578Z,99244.73
2018-07-11T16:39:44.532Z,99244.47
2018-07-11T16:42:12.484Z,99243.67
2018-07-11T16:44:40.484Z,99246.94
2018-07-11T16:47:08.354Z,99245.39
2018-07-11T16:49:38.270Z,99233.69
2018-07-11T16:52:06.320Z,99239.57
2018-07-11T16:54:34.499Z,99249.34
2018-07-11T16:57:03.802Z,99251.41
2018-07-11T16:59:39.485Z,99254.30
2018-07-11T17:02:08.705Z,99248.44
2018-07-11T17:04:40.197Z,99249.83
2018-07-11T17:07:11.069Z,99250.44
2018-07-11T17:09:39.621Z,99254.65
2018-07-11T17:12:11.002Z,99248.67
2018-07-11T17:14:39.029Z,99246.34
2018-07-11T17:17:07.071Z,99250.22
2018-07-11T17:20:12.258Z,99260.42
2018-07-11T17:22:52.751Z,99252.77
2018-07-11T17:25:21.295Z,99255.03
2018-07-11T17:27:57.062Z,99248.94
2018-07-11T17:30:25.142Z,99257.29
2018-07-11T17:32:54.238Z,99260.85
2018-07-11T17:35:22.302Z,99262.77
2018-07-11T17:37:50.753Z,99269.64
2018-07-11T17:40:23.358Z,99267.98
2018-07-11T17:42:51.367Z,99270.33
2018-07-11T17:45:20.106Z,99268.77
2018-07-11T17:48:18.708Z,99269.96
2018-07-11T17:50:46.740Z,99272.23
2018-07-11T17:53:20.087Z,99275.66
2018-07-11T17:56:07.402Z,99285.14
2018-07-11T17:58:56.773Z,99273.69
2018-07-11T18:01:35.903Z,99282.33
2018-07-11T18:04:15.516Z,99284.77
2018-07-11T18:07:23.012Z,99285.16
2018-07-11T18:09:58.507Z,99288.95
2018-07-11T18:12:33.536Z,99291.67
2018-07-11T18:15:36.766Z,99294.63
2018-07-11T18:18:16.545Z,99301.44
2018-07-11T18:20:55.563Z,99297.14
2018-07-11T18:23:39.602Z,99308.17
2018-07-11T18:26:15.945Z,99306.83
2018-07-11T18:28:55.548Z,99312.06
2018-07-11T18:31:32.310Z,99306.77
2018-07-11T18:34:15.609Z,99310.64
2018-07-11T18:37:51.628Z,99316.72
2018-07-11T18:40:31.933Z,99332.13
2018-07-11T18:45:15.689Z,99334.47
2018-07-11T18:47:59.905Z,99337.37
2018-07-11T18:53:37.472Z,99347.54
2018-07-11T18:56:25.038Z,99349.05
2018-07-11T18:58:58.027Z,99355.91
2018-07-11T19:03:42.893Z,99353.67
2018-07-11T19:06:17.977Z,99360.64
2018-07-11T19:09:54.800Z,99361.45
2018-07-11T19:12:36.156Z,99361.45
2018-07-11T19:15:08.633Z,99365.03
2018-07-11T19:19:49.745Z,99361.45
2018-07-11T19:22:26.060Z,99368.63
2018-07-11T19:25:06.546Z,99365.12
2018-07-11T19:27:45.245Z,99370.08
2018-07-11T19:30:18.028Z,99368.92
2018-07-11T19:32:59.560Z,99373.30
2018-07-11T19:37:42.362Z,99373.58
2018-07-11T19:40:48.214Z,99381.11
2018-07-11T19:45:39.861Z,99378.11
2018-07-11T19:48:30.929Z,99382.86
2018-07-11T19:51:08.018Z,99380.39
2018-07-11T19:55:49.633Z,99375.13
2018-07-11T19:58:17.532Z,99367.16
2018-07-11T20:00:45.522Z,99370.17
2018-07-11T20:03:13.502Z,99370.52
2018-07-11T20:05:41.778Z,99367.72
2018-07-11T20:08:09.642Z,99368.01
2018-07-11T20:10:37.646Z,99373.50
2018-07-11T20:13:06.210Z,99375.11
2018-07-11T20:15:34.573Z,99369.08
2018-07-11T20:18:02.475Z,99364.35
2018-07-11T20:20:30.389Z,99366.80
2018-07-11T20:22:58.221Z,99368.17
2018-07-11T20:25:26.165Z,99373.67
2018-07-11T20:27:54.122Z,99379.18
2018-07-11T20:30:22.205Z,99381.34
2018-07-11T20:32:50.031Z,99380.48
2018-07-11T20:35:17.898Z,99377.47
2018-07-11T20:37:46.222Z,99380.77
2018-07-11T20:40:14.089Z,99387.05
2018-07-11T20:42:42.090Z,99384.62
2018-07-11T20:45:10.081Z,99385.22
2018-07-11T20:47:38.042Z,99378.33
2018-07-11T20:50:05.985Z,99380.50
2018-07-11T20:52:33.864Z,99383.00
2018-07-11T20:55:01.696Z,99381.92
2018-07-11T20:57:29.562Z,99380.02
2018-07-11T21:00:08.517Z,99381.69
2018-07-11T21:03:20.615Z,99388.56
2018-07-11T21:05:58.986Z,99391.08
2018-07-11T21:09:40.535Z,99388.05
2018-07-11T21:14:25.128Z,99389.66
2018-07-11T21:17:04.118Z,99399.83
2018-07-11T21:19:32.039Z,99400.36
2018-07-11T21:21:59.858Z,99394.91
2018-07-11T21:24:27.703Z,99397.73
2018-07-11T21:26:55.546Z,99400.73
2018-07-11T21:29:23.390Z,99401.92
2018-07-11T21:31:51.214Z,99398.30
2018-07-11T21:34:19.062Z,99390.84
2018-07-11T21:36:46.889Z,99385.97
2018-07-11T21:39:14.742Z,99394.95
2018-07-11T21:41:42.615Z,99395.77
2018-07-11T21:44:10.468Z,99393.86
2018-07-11T21:46:38.446Z,99394.14
2018-07-11T21:49:06.441Z,99399.05
2018-07-11T21:51:34.265Z,99399.37
2018-07-11T21:54:02.118Z,99399.66
2018-07-11T21:56:29.966Z,99400.18
2018-07-11T21:58:57.813Z,99399.08
2018-07-11T22:01:25.701Z,99401.58
2018-07-11T22:03:53.521Z,99404.56
2018-07-11T22:06:21.386Z,99404.55
2018-07-11T22:08:49.238Z,99402.69
2018-07-11T22:11:17.156Z,99400.26
2018-07-11T22:13:45.031Z,99403.01
2018-07-11T22:16:12.948Z,99406.63
2018-07-11T22:18:45.078Z,99401.13
2018-07-11T22:21:12.845Z,99404.38
2018-07-11T22:23:39.573Z,99408.83
2018-07-11T22:26:06.061Z,99405.80
2018-07-11T22:28:32.588Z,99400.55
2018-07-11T22:30:59.073Z,99398.34
2018-07-11T22:33:25.565Z,99393.92
2018-07-11T22:35:52.061Z,99395.88
2018-07-11T22:38:18.546Z,99389.55
2018-07-11T22:40:45.459Z,99390.38
2018-07-11T22:43:11.953Z,99395.59
2018-07-11T22:45:38.451Z,99385.42
2018-07-11T22:48:04.949Z,99391.72
2018-07-11T22:50:31.439Z,99398.34
2018-07-11T22:52:57.922Z,99394.52
2018-07-11T22:55:24.518Z,99400.05
2018-07-11T22:57:51.260Z,99398.09
2018-07-11T23:00:17.780Z,99405.50
2018-07-11T23:02:44.373Z,99400.33
2018-07-11T23:05:10.850Z,99400.05
2018-07-11T23:07:37.331Z,99398.97
2018-07-11T23:10:03.803Z,99389.36
2018-07-11T23:12:30.273Z,99389.61
2018-07-11T23:14:56.733Z,99394.31
2018-07-11T23:17:23.210Z,99396.22
2018-07-11T23:19:49.686Z,99393.48
2018-07-11T23:22:16.159Z,99400.34
2018-07-11T23:24:42.654Z,99395.69
2018-07-11T23:27:09.134Z,99397.59
2018-07-11T23:29:35.614Z,99395.39
2018-07-11T23:32:02.383Z,99395.95
2018-07-11T23:34:28.878Z,99399.80
2018-07-11T23:36:55.365Z,99398.13
2018-07-11T23:39:21.837Z,99398.43
2018-07-11T23:41:48.321Z,99402.27
2018-07-11T23:44:14.814Z,99398.67
2018-07-11T23:46:41.311Z,99403.64
2018-07-11T23:49:07.794Z,99398.95
2018-07-11T23:51:34.288Z,99398.98
2018-07-11T23:54:00.781Z,99398.13
2018-07-11T23:56:27.276Z,99402.53
2018-07-11T23:58:53.762Z,99402.83
